Peruwelz, Belgium
Current Conditions -  °F | °C
As of 11:25 AM on Saturday 01 Nov 2014 (Local Time) from EBCV Reporting Station
Clear Clear  
Wind Chill: 64°   Ceiling: Unl
Heat Index: 64°   Visibility: 6mi
Dew Point: 54°   Wind: 9mph
Humidity: 68%   Direction: 210°SSW
Pressure: 30.09"   Gusts: NA
Location:  50.51°N, 3.59°E
Report Text: EBCV 011025Z AUTO 21008KT 9999 NCD 18/12 Q1019 BLU
Loading
Personal Weather Stations






























Interactive Weather Map New forecast layout! Learn more

10-Day Weather Forecast

Advertisements
Track Severe Weather on mobile